Time;durP1;ratioP1;P1;durP2;ratioP2;P2;SDS_P1;SDS_P2;PMS_P1;PMS_P2;Temp;Humidity;BMP_temperature;BMP_pressure;BME280_temperature;BME280_humidity;BME280_pressure;Samples;Min_cycle;Max_cycle;Signal;HPM_P1;HPM_P2
2023/04/11 00:01:21;;;;;;;10.93;7.70;;;;;;;7.33;100.00;63705.88;5031673;28;20213;-62
2023/04/11 00:03:48;;;;;;;10.87;8.20;;;;;;;7.41;100.00;63712.63;5013529;28;20214;-63
2023/04/11 00:06:13;;;;;;;12.00;7.30;;;;;;;7.29;100.00;63699.00;5031420;28;20224;-62
2023/04/11 00:08:38;;;;;;;10.67;7.17;;;;;;;7.23;100.00;63689.94;5031338;28;20233;-61
2023/04/11 00:11:04;;;;;;;9.53;7.03;;;;;;;7.09;100.00;63674.69;5031815;28;20742;-63
2023/04/11 00:13:30;;;;;;;10.73;8.07;;;;;;;7.08;100.00;63671.06;5031263;28;20209;-60
2023/04/11 00:15:56;;;;;;;9.47;8.07;;;;;;;7.16;100.00;63684.81;5031706;28;20676;-61
2023/04/11 00:18:24;;;;;;;11.40;8.57;;;;;;;7.21;100.00;63690.28;5013657;28;20622;-61
2023/04/11 00:20:49;;;;;;;9.77;7.23;;;;;;;7.17;100.00;63683.41;5031389;28;20198;-62
2023/04/11 00:23:15;;;;;;;9.40;7.10;;;;;;;7.18;100.00;63685.03;5031305;28;20213;-61
2023/04/11 00:25:40;;;;;;;12.37;8.50;;;;;;;7.15;100.00;63686.25;5031252;28;20201;-61
2023/04/11 00:28:06;;;;;;;9.80;7.67;;;;;;;7.18;100.00;63687.00;5030995;28;20668;-62
2023/04/11 00:30:31;;;;;;;10.40;7.90;;;;;;;7.09;100.00;63675.22;5031039;28;20610;-61
2023/04/11 00:32:57;;;;;;;13.70;7.73;;;;;;;7.04;100.00;63671.72;5030463;28;20711;-60
2023/04/11 00:35:22;;;;;;;11.33;7.97;;;;;;;6.99;100.00;63666.81;5031051;28;20241;-61
2023/04/11 00:37:53;;;;;;;12.10;8.23;;;;;;;7.03;100.00;63666.16;5013085;28;20204;-61
2023/04/11 00:40:19;;;;;;;10.90;7.67;;;;;;;6.97;100.00;63666.59;5031543;28;20200;-61
2023/04/11 00:42:45;;;;;;;10.27;7.83;;;;;;;6.93;100.00;63660.28;5030962;28;20197;-61
2023/04/11 00:45:11;;;;;;;11.20;8.67;;;;;;;6.92;100.00;63658.63;5013451;28;20569;-62
2023/04/11 00:47:37;;;;;;;11.20;8.40;;;;;;;6.90;100.00;63657.00;5030935;28;20189;-61
2023/04/11 00:50:18;;;;;;;12.27;8.57;;;;;;;6.95;100.00;63661.91;5030802;28;20610;-60
2023/04/11 00:52:46;;;;;;;11.17;8.27;;;;;;;6.97;100.00;63667.13;5030952;28;20206;-61
2023/04/11 00:55:13;;;;;;;11.23;7.90;;;;;;;7.02;100.00;63669.53;5031044;28;20560;-61
2023/04/11 00:57:40;;;;;;;11.63;7.20;;;;;;;7.08;100.00;63676.09;5030825;28;20210;-62
2023/04/11 01:00:09;;;;;;;11.27;8.27;;;;;;;7.07;100.00;63672.50;5030650;28;20256;-61
2023/04/11 01:02:34;;;;;;;13.87;8.77;;;;;;;7.19;100.00;63688.63;5030641;28;20190;-62
2023/04/11 01:05:00;;;;;;;11.53;8.53;;;;;;;7.13;100.00;63682.06;5030474;28;20764;-61
2023/04/11 01:07:26;;;;;;;12.03;8.03;;;;;;;7.17;100.00;63686.44;5030968;28;20204;-62
2023/04/11 01:09:53;;;;;;;11.43;8.27;;;;;;;7.20;100.00;63689.19;5030831;28;20677;-60
2023/04/11 01:12:20;;;;;;;10.70;7.90;;;;;;;7.05;100.00;63672.81;5030749;28;20213;-61
2023/04/11 01:14:46;;;;;;;10.60;8.17;;;;;;;6.98;100.00;63665.19;5030455;28;20297;-62
2023/04/11 01:17:13;;;;;;;11.40;8.43;;;;;;;7.02;100.00;63667.03;5013030;28;20595;-62
2023/04/11 01:19:39;;;;;;;10.90;7.67;;;;;;;6.94;100.00;63660.81;5030360;28;20252;-61
2023/04/11 01:22:05;;;;;;;11.93;8.03;;;;;;;7.02;100.00;63669.53;5030569;28;20190;-61
2023/04/11 01:24:31;;;;;;;13.87;8.60;;;;;;;7.11;100.00;63679.91;5030446;28;20694;-61
2023/04/11 01:26:57;;;;;;;10.60;7.90;;;;;;;7.15;100.00;63684.25;5030478;28;20190;-61
2023/04/11 01:29:22;;;;;;;11.87;7.90;;;;;;;7.15;100.00;63683.72;5030339;28;20221;-60
2023/04/11 01:31:49;;;;;;;11.87;8.93;;;;;;;6.94;100.00;63660.81;5030424;28;20201;-61
2023/04/11 01:34:16;;;;;;;11.23;7.60;;;;;;;7.05;100.00;63670.84;5030256;28;20209;-61
2023/04/11 01:36:42;;;;;;;11.17;7.97;;;;;;;7.03;100.00;63671.16;5030475;28;20187;-62
2023/04/11 01:39:08;;;;;;;12.77;8.27;;;;;;;6.96;100.00;63666.06;5029991;28;20228;-61
2023/04/11 01:41:35;;;;;;;13.10;8.67;;;;;;;6.98;100.00;63665.72;5030493;28;20182;-61
2023/04/11 01:44:04;;;;;;;12.47;8.93;;;;;;;6.97;100.00;63662.13;5030069;28;20688;-61
2023/04/11 01:46:30;;;;;;;10.93;7.47;;;;;;;6.98;100.00;63665.19;5032749;28;20197;-61
2023/04/11 01:48:57;;;;;;;10.50;8.20;;;;;;;6.96;100.00;63663.00;5033566;28;20209;-61
2023/04/11 01:51:22;;;;;;;13.03;8.87;;;;;;;7.01;100.00;63668.47;5033632;28;20186;-60
2023/04/11 01:53:48;;;;;;;12.70;8.57;;;;;;;7.02;100.00;63667.03;5033648;28;20650;-61
2023/04/11 01:56:14;;;;;;;13.57;8.90;;;;;;;6.96;100.00;63661.03;5033579;28;20185;-60
2023/04/11 01:58:40;;;;;;;12.87;8.67;;;;;;;6.93;100.00;63657.25;5033446;28;20226;-61
2023/04/11 02:01:05;;;;;;;14.93;9.27;;;;;;;6.86;100.00;63652.09;4999848;28;20229;-61
2023/04/11 02:03:31;;;;;;;12.67;8.93;;;;;;;6.99;100.00;63666.28;5033508;28;20198;-61
2023/04/11 02:05:56;;;;;;;15.70;9.97;;;;;;;6.86;100.00;63652.66;5016127;28;20284;-62
2023/04/11 02:08:22;;;;;;;12.20;8.23;;;;;;;6.87;100.00;63655.69;5033327;28;20244;-61
2023/04/11 02:10:47;;;;;;;12.90;8.77;;;;;;;6.71;100.00;63636.28;5033239;28;20198;-61
2023/04/11 02:13:13;;;;;;;13.73;9.00;;;;;;;6.81;100.00;63641.66;5033192;28;20751;-61
2023/04/11 02:15:38;;;;;;;11.93;8.53;;;;;;;6.90;100.00;63656.47;5015530;28;20198;-61
2023/04/11 02:18:04;;;;;;;11.00;8.67;;;;;;;6.86;100.00;63654.59;5033177;28;20213;-62
2023/04/11 02:20:29;;;;;;;12.57;9.03;;;;;;;6.70;100.00;63635.75;5015411;28;20270;-60
2023/04/11 02:22:54;;;;;;;14.33;9.70;;;;;;;6.66;100.00;63630.84;5033150;28;20206;-61
2023/04/11 02:25:20;;;;;;;12.13;8.67;;;;;;;6.56;100.00;63615.47;5015668;28;20209;-60
2023/04/11 02:27:45;;;;;;;13.57;9.47;;;;;;;6.65;100.00;63629.75;5033051;28;20290;-62
2023/04/11 02:30:11;;;;;;;13.60;9.20;;;;;;;6.54;100.00;63617.75;5033364;28;20190;-60
2023/04/11 02:32:37;;;;;;;13.57;9.47;;;;;;;6.63;100.00;63625.59;5032874;28;20178;-62
2023/04/11 02:35:08;;;;;;;16.53;10.57;;;;;;;6.58;100.00;63620.16;5033092;28;20492;-61
2023/04/11 02:37:34;;;;;;;16.33;10.00;;;;;;;6.57;100.00;63619.06;5033029;28;20187;-61
2023/04/11 02:40:01;;;;;;;13.37;9.30;;;;;;;6.52;100.00;63613.63;5032649;28;20221;-61
2023/04/11 02:42:26;;;;;;;16.47;10.13;;;;;;;6.53;100.00;63614.72;5032873;28;20263;-59
2023/04/11 02:44:54;;;;;;;13.87;9.53;;;;;;;6.67;100.00;63629.41;5032611;28;20300;-62
2023/04/11 02:47:20;;;;;;;15.43;10.57;;;;;;;6.64;100.00;63629.22;5014922;28;20186;-61
2023/04/11 02:49:46;;;;;;;14.17;9.47;;;;;;;6.50;100.00;63613.94;5032861;28;20213;-61
2023/04/11 02:52:11;;;;;;;15.37;10.03;;;;;;;6.61;100.00;63625.38;5032733;28;20190;-61
2023/04/11 02:54:37;;;;;;;15.73;10.33;;;;;;;6.52;100.00;63616.13;5032728;28;20245;-61
2023/04/11 02:57:03;;;;;;;16.90;11.13;;;;;;;6.58;100.00;63622.13;5032150;28;20668;-59
2023/04/11 02:59:28;;;;;;;14.77;10.60;;;;;;;6.49;100.00;63612.28;5032437;28;20236;-60
2023/04/11 03:01:58;;;;;;;17.97;11.20;;;;;;;6.58;100.00;63617.13;5032649;28;20206;-62
2023/04/11 03:04:23;;;;;;;16.43;10.77;;;;;;;6.65;100.00;63629.75;5014742;28;20228;-61
2023/04/11 03:06:48;;;;;;;15.07;10.30;;;;;;;6.60;100.00;63624.31;5032627;28;20298;-61
2023/04/11 03:09:14;;;;;;;16.80;11.17;;;;;;;6.61;100.00;63625.38;5032438;28;20676;-61
2023/04/11 03:11:39;;;;;;;15.90;10.57;;;;;;;6.49;100.00;63612.28;5032423;28;20196;-61
2023/04/11 03:14:05;;;;;;;16.83;11.33;;;;;;;6.50;100.00;63613.41;5032518;28;20222;-60
2023/04/11 03:16:31;;;;;;;21.17;11.40;;;;;;;6.55;100.00;63616.88;5032247;28;20192;-61
2023/04/11 03:18:57;;;;;;;16.77;11.80;;;;;;;6.54;100.00;63615.81;5032022;28;20275;-62
2023/04/11 03:21:23;;;;;;;18.07;11.07;;;;;;;6.50;100.00;63613.94;5032380;28;20193;-59
2023/04/11 03:23:48;;;;;;;18.40;11.90;;;;;;;6.57;100.00;63621.03;5014215;28;20758;-61
2023/04/11 03:26:14;;;;;;;17.90;11.37;;;;;;;6.48;100.00;63611.22;5014613;28;20193;-62
2023/04/11 03:28:39;;;;;;;18.70;11.53;;;;;;;6.40;100.00;63600.53;5031958;28;20351;-62
2023/04/11 03:31:05;;;;;;;16.47;10.83;;;;;;;6.41;100.00;63606.63;5031773;28;20219;-60
2023/04/11 03:33:31;;;;;;;17.90;12.10;;;;;;;6.37;100.00;63599.22;5031824;28;20251;-60
2023/04/11 03:35:57;;;;;;;17.40;11.03;;;;;;;6.45;100.00;63607.94;5013941;28;20224;-62
2023/04/11 03:38:24;;;;;;;16.80;10.97;;;;;;;6.51;100.00;63615.03;5013959;28;20573;-62
2023/04/11 03:40:49;;;;;;;15.43;10.97;;;;;;;6.42;100.00;63605.22;5032168;28;20743;-61
2023/04/11 03:43:16;;;;;;;18.00;11.70;;;;;;;6.49;100.00;63609.78;5031775;28;20233;-60
2023/04/11 03:45:41;;;;;;;16.30;11.40;;;;;;;6.46;100.00;63607.09;5031909;28;20197;-61
2023/04/11 03:48:07;;;;;;;19.40;12.07;;;;;;;6.41;100.00;63604.13;5031678;28;20363;-61
2023/04/11 03:50:33;;;;;;;17.60;11.57;;;;;;;6.36;100.00;63598.16;5031874;28;20209;-59
2023/04/11 03:52:58;;;;;;;18.50;11.63;;;;;;;6.37;100.00;63597.28;5031815;28;20604;-58
2023/04/11 03:55:24;;;;;;;18.27;11.63;;;;;;;6.46;100.00;63609.59;5031642;28;20197;-58
2023/04/11 03:57:50;;;;;;;17.30;11.70;;;;;;;6.31;100.00;63593.22;5031503;28;20246;-58
2023/04/11 04:00:16;;;;;;;18.10;12.37;;;;;;;6.43;100.00;63606.31;5031924;28;20205;-58
2023/04/11 04:02:41;;;;;;;19.27;12.43;;;;;;;6.35;100.00;63597.59;5031467;28;20660;-57
2023/04/11 04:05:06;;;;;;;20.77;12.77;;;;;;;6.47;100.00;63610.66;5031979;28;20212;-58
2023/04/11 04:07:32;;;;;;;19.23;11.80;;;;;;;6.44;100.00;63607.41;5030919;28;20188;-57
2023/04/11 04:09:57;;;;;;;18.40;12.20;;;;;;;6.39;100.00;63599.44;5031485;28;20299;-58
2023/04/11 04:12:23;;;;;;;19.03;12.07;;;;;;;6.45;100.00;63607.94;5031615;28;20190;-58
2023/04/11 04:14:48;;;;;;;14.87;11.13;;;;;;;6.41;100.00;63601.06;5031493;28;20210;-58
2023/04/11 04:17:15;;;;;;;18.33;12.03;;;;;;;6.38;100.00;63598.34;5031491;28;20525;-59
2023/04/11 04:19:41;;;;;;;17.77;12.07;;;;;;;6.35;100.00;63597.03;5031664;28;20252;-55
2023/04/11 04:22:10;;;;;;;17.60;11.73;;;;;;;6.38;100.00;63600.31;5031560;28;20202;-56
2023/04/11 04:24:40;;;;;;;19.53;12.10;;;;;;;6.40;100.00;63597.50;5031670;28;20268;-56
2023/04/11 04:27:10;;;;;;;21.03;12.20;;;;;;;6.49;100.00;63612.84;4997706;28;20205;-56
2023/04/11 04:29:45;;;;;;;18.70;12.83;;;;;;;6.36;100.00;63598.16;5031518;28;20251;-55
2023/04/11 04:32:19;;;;;;;18.60;13.50;;;;;;;6.39;100.00;63601.94;5031590;28;20599;-59
2023/04/11 04:34:48;;;;;;;19.17;13.10;;;;;;;6.29;100.00;63590.50;5031466;28;20296;-58
2023/04/11 04:37:23;;;;;;;19.43;13.03;;;;;;;6.41;100.00;63601.63;5031276;28;20222;-58
2023/04/11 04:39:54;;;;;;;19.30;13.07;;;;;;;6.42;100.00;63604.69;5031337;28;20283;-55
2023/04/11 04:42:22;;;;;;;18.00;12.70;;;;;;;6.40;100.00;63600.00;5031320;28;20249;-55
2023/04/11 04:44:48;;;;;;;19.87;13.00;;;;;;;6.24;100.00;63583.09;5031378;28;20222;-55
2023/04/11 04:47:14;;;;;;;19.90;13.30;;;;;;;6.28;100.00;63587.44;5031231;28;20699;-58
2023/04/11 04:49:40;;;;;;;19.57;12.40;;;;;;;6.04;100.00;63561.31;5031102;28;20311;-58
2023/04/11 04:52:05;;;;;;;20.67;14.13;;;;;;;6.06;100.00;63565.97;5030826;28;20263;-57
2023/04/11 04:54:31;;;;;;;21.43;13.10;;;;;;;6.07;100.00;63567.09;5030829;28;20596;-58
2023/04/11 04:56:57;;;;;;;23.83;14.20;;;;;;;5.97;100.00;63555.63;5031083;28;20582;-56
2023/04/11 04:59:22;;;;;;;20.67;13.80;;;;;;;6.08;100.00;63567.63;5030383;28;20239;-56
2023/04/11 05:01:52;;;;;;;21.17;14.23;;;;;;;6.08;100.00;63567.63;5030906;28;20201;-56
2023/04/11 05:04:17;;;;;;;24.33;14.77;;;;;;;6.12;100.00;63572.53;5030968;28;20225;-56
2023/04/11 05:06:43;;;;;;;24.20;14.67;;;;;;;6.05;100.00;63564.34;5030925;28;20193;-57
2023/04/11 05:09:08;;;;;;;22.23;13.27;;;;;;;6.15;100.00;63575.78;5030696;28;20309;-57
2023/04/11 05:11:34;;;;;;;20.47;13.97;;;;;;;6.18;100.00;63578.53;5030743;28;20193;-56
2023/04/11 05:13:59;;;;;;;23.47;15.33;;;;;;;6.12;100.00;63575.03;5030722;28;20209;-60
2023/04/11 05:16:25;;;;;;;20.83;13.30;;;;;;;6.18;100.00;63576.56;5030775;28;20276;-55
2023/04/11 05:18:50;;;;;;;24.37;14.90;;;;;;;6.13;100.00;63573.63;5012407;28;20619;-56
2023/04/11 05:21:16;;;;;;;21.67;13.63;;;;;;;6.15;100.00;63575.78;5030363;28;20196;-56
2023/04/11 05:23:42;;;;;;;18.87;13.17;;;;;;;6.13;100.00;63573.63;5029981;28;20282;-57
2023/04/11 05:26:08;;;;;;;18.47;13.13;;;;;;;6.18;100.00;63576.03;5030338;28;20644;-56
2023/04/11 05:28:34;;;;;;;26.00;14.97;;;;;;;6.17;100.00;63577.97;5030331;28;20217;-55
2023/04/11 05:31:00;;;;;;;21.57;13.07;;;;;;;6.23;100.00;63584.50;5030400;28;20201;-61
2023/04/11 05:33:26;;;;;;;19.17;13.17;;;;;;;6.20;100.00;63578.22;5030845;28;20239;-60
2023/04/11 05:35:52;;;;;;;21.53;13.57;;;;;;;6.29;100.00;63590.50;5030280;28;20197;-58
2023/04/11 05:38:18;;;;;;;22.63;14.70;;;;;;;6.38;100.00;63598.34;5030352;28;20225;-57
2023/04/11 05:40:44;;;;;;;23.67;14.63;;;;;;;6.33;100.00;63594.84;5030489;28;20659;-55
2023/04/11 05:43:13;;;;;;;17.50;11.93;;;;;;;6.29;100.00;63588.56;5030347;28;20231;-55
2023/04/11 05:45:39;;;;;;;19.17;12.77;;;;;;;6.43;100.00;63605.75;5030347;28;20204;-55
2023/04/11 05:48:08;;;;;;;18.83;12.77;;;;;;;6.46;100.00;63607.09;5030123;28;20213;-57
2023/04/11 05:50:34;;;;;;;21.70;13.93;;;;;;;6.39;100.00;63601.94;5029254;28;20703;-62
2023/04/11 05:53:00;;;;;;;18.03;12.40;;;;;;;6.30;100.00;63589.63;5029956;28;20283;-61
2023/04/11 05:55:25;;;;;;;19.27;12.60;;;;;;;6.41;100.00;63603.56;5028964;28;20209;-55
2023/04/11 05:57:51;;;;;;;20.33;13.53;;;;;;;6.47;100.00;63607.63;5028791;28;20216;-57
2023/04/11 06:00:17;;;;;;;19.43;12.57;;;;;;;6.44;100.00;63607.41;5030287;28;20614;-56
2023/04/11 06:02:43;;;;;;;19.70;12.27;;;;;;;6.54;100.00;63617.75;5030089;28;20200;-56
2023/04/11 06:05:10;;;;;;;21.10;13.20;;;;;;;6.59;100.00;63623.19;5030062;28;20252;-58
2023/04/11 06:07:40;;;;;;;20.23;12.80;;;;;;;6.67;100.00;63632.47;5029927;28;20230;-55
2023/04/11 06:10:06;;;;;;;17.07;11.87;;;;;;;6.58;100.00;63622.13;5030438;28;20348;-55
2023/04/11 06:12:32;;;;;;;28.13;12.73;;;;;;;6.72;100.00;63637.94;5029888;28;20193;-55
2023/04/11 06:14:58;;;;;;;21.33;11.80;;;;;;;6.84;100.00;63647.41;5030125;28;20186;-57
2023/04/11 06:17:24;;;;;;;20.43;12.53;;;;;;;6.67;100.00;63629.97;5029799;28;20189;-59
2023/04/11 06:19:49;;;;;;;18.03;13.10;;;;;;;6.69;100.00;63634.66;5029028;28;20628;-58
2023/04/11 06:22:15;;;;;;;18.47;11.57;;;;;;;6.69;100.00;63632.16;5029764;28;20667;-57
2023/04/11 06:24:40;;;;;;;16.17;11.17;;;;;;;6.86;100.00;63647.63;5029816;28;20702;-58
2023/04/11 06:27:09;;;;;;;18.10;10.80;;;;;;;6.91;100.00;63660.06;5029675;28;20190;-59
2023/04/11 06:29:39;;;;;;;17.10;12.07;;;;;;;6.82;100.00;63645.78;5029791;28;20274;-59
2023/04/11 06:32:06;;;;;;;17.37;11.27;;;;;;;6.93;100.00;63657.75;5031674;28;20197;-60
2023/04/11 06:34:31;;;;;;;16.43;10.80;;;;;;;7.04;100.00;63669.22;5033335;28;20289;-61
2023/04/11 06:36:57;;;;;;;16.70;11.40;;;;;;;7.07;100.00;63675.00;5033046;28;20633;-62
2023/04/11 06:39:22;;;;;;;14.70;9.87;;;;;;;7.30;100.00;63698.13;5033056;28;20574;-60
2023/04/11 06:41:48;;;;;;;16.13;10.97;;;;;;;7.20;100.00;63692.22;5032842;28;20335;-61
2023/04/11 06:44:13;;;;;;;14.93;10.10;;;;;;;7.19;100.00;63685.59;5033019;28;20224;-61
2023/04/11 06:46:39;;;;;;;14.17;10.23;;;;;;;7.26;100.00;63695.72;5032827;28;20618;-60
2023/04/11 06:49:07;;;;;;;14.97;11.03;;;;;;;7.48;100.00;63719.72;5040144;23;20304;-59
2023/04/11 06:51:34;;;;;;;14.83;10.10;;;;;;;7.40;100.00;63708.47;5032839;28;20186;-60
2023/04/11 06:54:00;;;;;;;17.40;10.20;;;;;;;7.57;100.00;63727.03;5015340;28;20220;-60
2023/04/11 06:56:25;;;;;;;16.33;11.53;;;;;;;7.59;100.00;63732.25;5033002;28;20182;-57
2023/04/11 06:58:51;;;;;;;14.90;10.20;;;;;;;7.57;100.00;63730.09;5032674;28;20225;-57
2023/04/11 07:01:19;;;;;;;13.93;9.40;;;;;;;7.57;100.00;63727.03;5032957;28;20313;-56
2023/04/11 07:03:48;;;;;;;12.77;8.57;;;;;;;7.60;99.39;63732.81;5032960;28;20576;-56
2023/04/11 07:06:14;;;;;;;14.87;9.47;;;;;;;7.47;100.00;63716.13;5032960;28;20189;-55
2023/04/11 07:08:39;;;;;;;14.07;9.60;;;;;;;7.50;99.19;63719.41;5032698;28;20554;-55
2023/04/11 07:11:05;;;;;;;15.70;9.63;;;;;;;7.47;99.65;63716.13;5032478;28;20277;-55
2023/04/11 07:13:31;;;;;;;15.37;10.30;;;;;;;7.47;100.00;63716.13;5032326;28;20213;-55
2023/04/11 07:15:56;;;;;;;13.87;9.47;;;;;;;7.54;100.00;63726.81;5032577;28;20186;-57
2023/04/11 07:18:21;;;;;;;13.53;9.10;;;;;;;7.63;99.06;63736.63;5032359;28;20696;-57
2023/04/11 07:20:47;;;;;;;12.13;9.57;;;;;;;7.64;98.97;63734.66;5032474;28;20228;-54
2023/04/11 07:23:13;;;;;;;14.73;8.47;;;;;;;7.77;98.90;63748.31;5032277;28;20661;-58
2023/04/11 07:25:39;;;;;;;13.07;8.80;;;;;;;7.80;96.50;63749.63;5014544;28;20190;-59
2023/04/11 07:28:06;;;;;;;15.03;9.87;;;;;;;7.77;97.75;63745.81;5032101;28;20264;-61
2023/04/11 07:30:32;;;;;;;12.80;9.43;;;;;;;7.91;96.71;63763.59;5032276;28;20218;-60
2023/04/11 07:32:58;;;;;;;14.20;9.57;;;;;;;7.82;98.42;63751.81;5032200;28;20210;-60
2023/04/11 07:35:23;;;;;;;15.27;9.70;;;;;;;7.86;97.90;63758.69;5032241;28;20253;-59
2023/04/11 07:37:49;;;;;;;12.07;8.63;;;;;;;7.81;97.07;63755.19;5032043;28;20583;-61
2023/04/11 07:40:16;;;;;;;16.20;8.63;;;;;;;8.02;95.55;63776.16;5032002;28;20295;-61
2023/04/11 07:42:41;;;;;;;15.20;9.73;;;;;;;8.10;95.83;63786.84;5030695;28;20379;-57
2023/04/11 07:45:07;;;;;;;12.13;8.70;;;;;;;8.28;95.24;63804.03;5032118;28;20190;-56
2023/04/11 07:47:33;;;;;;;13.03;8.40;;;;;;;8.35;94.18;63811.66;5014260;28;20182;-61
2023/04/11 07:49:58;;;;;;;14.43;8.83;;;;;;;8.34;94.50;63810.56;5032334;28;20212;-61
2023/04/11 07:52:24;;;;;;;11.30;8.07;;;;;;;8.53;93.92;63833.28;5014834;28;20193;-55
2023/04/11 07:54:50;;;;;;;11.90;8.77;;;;;;;8.44;93.14;63821.50;5039526;22;20222;-55
2023/04/11 07:57:15;;;;;;;16.80;8.97;;;;;;;8.72;93.84;63849.56;5031950;28;20271;-55
2023/04/11 07:59:42;;;;;;;12.23;8.50;;;;;;;8.80;91.21;63860.28;5032112;28;20637;-56
2023/04/11 08:02:07;;;;;;;12.17;8.13;;;;;;;8.57;91.62;63835.69;5031759;28;20174;-56
2023/04/11 08:04:35;;;;;;;13.37;8.40;;;;;;;8.86;90.76;63869.88;5032020;28;20301;-61
2023/04/11 08:07:01;;;;;;;14.10;8.43;;;;;;;8.88;88.38;63869.00;5031876;28;20198;-57
2023/04/11 08:09:27;;;;;;;14.53;10.23;;;;;;;8.64;90.52;63845.84;5031939;28;20719;-61
2023/04/11 08:11:53;;;;;;;12.63;9.40;;;;;;;8.66;91.13;63847.50;5031540;28;20193;-59
2023/04/11 08:14:18;;;;;;;11.83;8.13;;;;;;;8.80;89.41;63860.81;5031557;28;20214;-61
2023/04/11 08:16:44;;;;;;;11.43;7.63;;;;;;;8.94;88.44;63875.56;5031385;28;20201;-60
2023/04/11 08:19:10;;;;;;;10.57;8.17;;;;;;;9.03;88.49;63888.44;5013627;28;20210;-62
2023/04/11 08:21:36;;;;;;;11.80;7.07;;;;;;;9.08;87.42;63893.38;5031484;28;20181;-56
2023/04/11 08:24:02;;;;;;;9.63;7.13;;;;;;;9.03;84.89;63885.94;5013566;28;20246;-56
2023/04/11 08:26:27;;;;;;;11.73;7.30;;;;;;;9.08;84.90;63891.41;5031189;28;20695;-57
2023/04/11 08:28:53;;;;;;;9.17;7.13;;;;;;;8.96;85.09;63880.81;5031462;28;20222;-59
2023/04/11 08:31:18;;;;;;;15.03;9.23;;;;;;;9.10;84.26;63893.06;5031158;28;20205;-59
2023/04/11 08:33:44;;;;;;;12.20;6.97;;;;;;;9.12;85.95;63895.25;5031216;28;20209;-59
2023/04/11 08:36:10;;;;;;;11.43;7.30;;;;;;;9.19;85.22;63902.91;5031128;28;20621;-58
2023/04/11 08:38:35;;;;;;;10.83;7.10;;;;;;;9.18;84.54;63902.34;5030957;28;20229;-59
2023/04/11 08:41:01;;;;;;;10.40;7.67;;;;;;;9.34;83.41;63919.28;5031276;28;20194;-56
2023/04/11 08:43:27;;;;;;;12.13;7.47;;;;;;;9.23;82.56;63910.31;5031088;28;20629;-55
2023/04/11 08:45:53;;;;;;;7.87;6.43;;;;;;;9.28;81.67;63912.72;5030963;28;20194;-56
2023/04/11 08:48:20;;;;;;;10.80;7.00;;;;;;;9.39;81.82;63927.28;5031027;28;20684;-55
2023/04/11 08:50:46;;;;;;;10.63;6.90;;;;;;;9.39;81.16;63924.22;5030852;28;20648;-56
2023/04/11 08:53:13;;;;;;;8.60;6.17;;;;;;;9.38;80.47;63926.16;5030746;28;20218;-57
2023/04/11 08:55:45;;;;;;;10.13;7.23;;;;;;;9.46;80.13;63932.41;5030211;28;20699;-56
2023/04/11 08:58:11;;;;;;;7.93;5.73;;;;;;;9.49;78.85;63935.69;5030562;28;20220;-55
2023/04/11 09:00:37;;;;;;;9.73;5.77;;;;;;;9.48;78.28;63934.03;5012997;28;20661;-60
2023/04/11 09:03:05;;;;;;;9.07;6.17;;;;;;;9.38;78.98;63926.16;5030809;28;20222;-60
2023/04/11 09:05:38;;;;;;;9.20;6.67;;;;;;;9.63;77.55;63951.00;5030746;28;20291;-60
2023/04/11 09:08:09;;;;;;;9.00;5.90;;;;;;;9.95;77.74;63985.44;5030841;28;20300;-61
2023/04/11 09:10:36;;;;;;;11.37;6.43;;;;;;;10.11;76.28;64002.97;5030700;28;20649;-60
2023/04/11 09:13:21;;;;;;;9.97;6.17;;;;;;;9.77;76.78;63963.25;5012668;28;20251;-61
2023/04/11 09:15:47;;;;;;;8.67;6.17;;;;;;;9.75;77.39;63966.63;5030594;28;20213;-60
2023/04/11 09:18:31;;;;;;;8.93;6.40;;;;;;;10.31;75.99;64021.78;5013047;28;20284;-61
2023/04/11 09:21:06;;;;;;;9.77;6.97;;;;;;;10.31;74.38;64021.78;5030771;28;20196;-59
2023/04/11 09:23:32;;;;;;;8.00;6.10;;;;;;;10.46;72.62;64038.75;5030632;28;20217;-61
2023/04/11 09:25:57;;;;;;;8.50;6.17;;;;;;;10.45;72.28;64039.63;5030344;28;20182;-58
2023/04/11 09:28:23;;;;;;;9.23;6.37;;;;;;;10.64;89.19;64060.44;5030262;28;20275;-56
2023/04/11 09:30:54;;;;;;;7.83;6.47;;;;;;;11.66;82.73;64172.16;5030395;28;20225;-59
2023/04/11 09:33:22;;;;;;;9.30;7.33;;;;;;;12.09;78.27;64218.19;5030473;28;20272;-57
2023/04/11 09:35:49;;;;;;;9.57;7.67;;;;;;;11.37;70.14;64140.34;5030325;28;20190;-59
2023/04/11 09:38:32;;;;;;;9.60;7.03;;;;;;;11.11;70.49;64113.84;5030039;28;20229;-58
2023/04/11 09:40:59;;;;;;;8.03;6.00;;;;;;;11.06;72.21;64106.41;5030255;28;20202;-58
2023/04/11 09:43:25;;;;;;;7.77;6.23;;;;;;;10.81;71.45;64082.09;5030184;28;20210;-58
2023/04/11 09:46:10;;;;;;;9.27;6.17;;;;;;;10.60;71.92;64056.59;5030178;28;20223;-58
2023/04/11 09:48:37;;;;;;;9.00;6.90;;;;;;;10.44;74.46;64038.53;5030093;28;20296;-57
2023/04/11 09:51:06;;;;;;;10.67;7.53;;;;;;;10.34;75.00;64027.59;5012289;28;20193;-57
2023/04/11 09:53:36;;;;;;;10.73;7.90;;;;;;;10.42;74.04;64036.34;5029723;28;20240;-58
2023/04/11 09:56:02;;;;;;;8.43;6.80;;;;;;;10.14;75.66;64009.31;5012009;28;20197;-57
2023/04/11 09:58:33;;;;;;;11.37;6.97;;;;;;;9.99;76.17;63992.88;5030029;28;20271;-57
2023/04/11 10:01:00;;;;;;;8.47;6.70;;;;;;;9.91;76.22;63981.63;5029982;28;20286;-57
2023/04/11 10:03:26;;;;;;;8.13;6.53;;;;;;;10.10;76.08;64004.94;5029941;28;20727;-60
2023/04/11 10:05:53;;;;;;;8.40;6.73;;;;;;;10.09;74.63;63996.28;5030178;28;20241;-62
2023/04/11 10:08:34;;;;;;;12.53;7.73;;;;;;;10.00;75.18;63990.91;5033303;28;20336;-61
2023/04/11 10:11:02;;;;;;;9.03;6.97;;;;;;;10.00;74.37;63993.97;5033570;28;20194;-63
2023/04/11 10:13:34;;;;;;;8.90;6.73;;;;;;;9.91;75.08;63981.63;5033570;28;20242;-60
2023/04/11 10:16:13;;;;;;;8.87;6.87;;;;;;;10.06;75.48;63995.50;5033400;28;20273;-62
2023/04/11 10:18:51;;;;;;;7.30;5.83;;;;;;;10.11;73.28;64006.03;5033540;28;20225;-61
2023/04/11 10:21:28;;;;;;;10.97;6.83;;;;;;;10.24;73.04;64019.16;5033223;28;20676;-62
2023/04/11 10:24:11;;;;;;;9.37;6.97;;;;;;;10.75;73.30;64069.94;5015553;28;20217;-62
2023/04/11 10:26:58;;;;;;;7.97;5.93;;;;;;;10.97;68.87;64096.53;5033164;28;20201;-64
2023/04/11 10:29:39;;;;;;;11.33;6.70;;;;;;;10.58;68.67;64051.34;5015352;28;20221;-63
2023/04/11 10:32:14;;;;;;;8.97;6.37;;;;;;;10.87;67.36;64083.06;5033038;28;20190;-67
2023/04/11 10:34:59;;;;;;;7.20;6.03;;;;;;;10.84;66.97;64080.34;5033002;28;20217;-63
2023/04/11 10:37:35;;;;;;;9.30;6.17;;;;;;;10.91;66.94;64089.97;5032807;28;20672;-62
2023/04/11 10:40:00;;;;;;;8.20;6.70;;;;;;;10.88;68.30;64084.72;5033306;28;20858;-61
2023/04/11 10:42:43;;;;;;;7.97;6.27;;;;;;;11.69;66.00;64174.91;5032857;28;20286;-63
2023/04/11 10:45:31;;;;;;;7.23;5.90;;;;;;;11.94;62.19;64199.75;5032872;28;20707;-57
2023/04/11 10:48:04;;;;;;;8.80;7.03;;;;;;;12.63;62.34;64277.94;5033094;28;20750;-57
2023/04/11 10:50:33;;;;;;;11.63;9.17;;;;;;;12.86;58.87;64299.53;5032746;28;20189;-57
2023/04/11 10:53:01;;;;;;;8.27;6.30;;;;;;;13.00;60.01;64315.47;5032834;28;20222;-57
2023/04/11 10:55:29;;;;;;;8.27;5.77;;;;;;;13.28;57.55;64348.19;5032778;28;20186;-56
2023/04/11 10:58:07;;;;;;;7.47;5.90;;;;;;;13.16;55.40;64332.47;5032814;28;20214;-57
2023/04/11 11:00:50;;;;;;;8.67;5.93;;;;;;;13.24;55.58;64343.78;5032757;28;20186;-58
2023/04/11 11:03:20;;;;;;;7.70;5.73;;;;;;;13.43;55.08;64365.19;5032502;28;20830;-57
2023/04/11 11:05:46;;;;;;;5.77;5.00;;;;;;;13.25;54.83;64347.97;5014849;28;20194;-57
2023/04/11 11:08:12;;;;;;;7.87;5.90;;;;;;;12.65;56.14;64277.59;5032738;28;20206;-56
2023/04/11 11:10:48;;;;;;;8.67;6.57;;;;;;;13.02;55.76;64317.09;5032499;28;20248;-56
2023/04/11 11:13:15;;;;;;;8.33;5.97;;;;;;;13.74;53.73;64396.16;5032335;28;20289;-57
2023/04/11 11:15:47;;;;;;;10.13;7.23;;;;;;;14.03;55.02;64424.91;5032356;28;20182;-57
2023/04/11 11:18:14;;;;;;;9.70;5.47;;;;;;;13.77;49.95;64401.44;5031862;28;20556;-57
2023/04/11 11:20:40;;;;;;;6.37;5.40;;;;;;;12.74;52.83;64286.94;5032525;28;20266;-61
2023/04/11 11:23:08;;;;;;;6.30;5.50;;;;;;;12.74;52.29;64289.47;5032157;28;20290;-57
2023/04/11 11:25:34;;;;;;;7.63;5.60;;;;;;;12.62;53.72;64274.31;5032072;28;20190;-56